sensor_id;sensor_type;location;lat;lon;timestamp;P1;durP1;ratioP1;P2;durP2;ratioP2
21032;SDS011;10675;47.976;7.824;2023-02-21T00:02:37;1.80;;;1.23;;
21032;SDS011;10675;47.976;7.824;2023-02-21T00:05:22;2.23;;;1.60;;
21032;SDS011;10675;47.976;7.824;2023-02-21T00:08:06;4.60;;;1.80;;
21032;SDS011;10675;47.976;7.824;2023-02-21T00:10:50;2.63;;;1.30;;
21032;SDS011;10675;47.976;7.824;2023-02-21T00:13:35;1.60;;;1.13;;
21032;SDS011;10675;47.976;7.824;2023-02-21T00:16:20;1.43;;;1.27;;
21032;SDS011;10675;47.976;7.824;2023-02-21T00:19:04;3.07;;;1.47;;
21032;SDS011;10675;47.976;7.824;2023-02-21T00:21:48;3.23;;;1.17;;
21032;SDS011;10675;47.976;7.824;2023-02-21T00:24:33;1.50;;;1.40;;
21032;SDS011;10675;47.976;7.824;2023-02-21T00:27:17;1.93;;;1.37;;
21032;SDS011;10675;47.976;7.824;2023-02-21T00:30:01;2.10;;;1.43;;
21032;SDS011;10675;47.976;7.824;2023-02-21T00:32:45;3.93;;;1.37;;
21032;SDS011;10675;47.976;7.824;2023-02-21T00:35:29;1.67;;;1.13;;
21032;SDS011;10675;47.976;7.824;2023-02-21T00:38:13;0.93;;;0.93;;
21032;SDS011;10675;47.976;7.824;2023-02-21T00:40:57;2.23;;;1.23;;
21032;SDS011;10675;47.976;7.824;2023-02-21T00:43:41;1.90;;;0.90;;
21032;SDS011;10675;47.976;7.824;2023-02-21T00:46:25;3.43;;;1.60;;
21032;SDS011;10675;47.976;7.824;2023-02-21T00:49:09;2.00;;;1.30;;
21032;SDS011;10675;47.976;7.824;2023-02-21T00:51:54;2.40;;;1.17;;
21032;SDS011;10675;47.976;7.824;2023-02-21T00:54:38;2.13;;;1.50;;
21032;SDS011;10675;47.976;7.824;2023-02-21T00:57:22;2.07;;;1.30;;
21032;SDS011;10675;47.976;7.824;2023-02-21T01:00:07;1.10;;;1.00;;
21032;SDS011;10675;47.976;7.824;2023-02-21T01:02:56;1.47;;;1.37;;
21032;SDS011;10675;47.976;7.824;2023-02-21T01:05:40;2.13;;;1.20;;
21032;SDS011;10675;47.976;7.824;2023-02-21T01:08:24;1.83;;;1.23;;
21032;SDS011;10675;47.976;7.824;2023-02-21T01:11:12;1.13;;;1.03;;
21032;SDS011;10675;47.976;7.824;2023-02-21T01:13:58;2.33;;;1.57;;
21032;SDS011;10675;47.976;7.824;2023-02-21T01:16:42;2.10;;;1.37;;
21032;SDS011;10675;47.976;7.824;2023-02-21T01:19:26;1.37;;;1.27;;
21032;SDS011;10675;47.976;7.824;2023-02-21T01:22:10;1.53;;;1.20;;
21032;SDS011;10675;47.976;7.824;2023-02-21T01:24:54;1.43;;;1.33;;
21032;SDS011;10675;47.976;7.824;2023-02-21T01:27:38;2.47;;;1.30;;
21032;SDS011;10675;47.976;7.824;2023-02-21T01:30:22;2.63;;;1.10;;
21032;SDS011;10675;47.976;7.824;2023-02-21T01:33:06;1.80;;;1.27;;
21032;SDS011;10675;47.976;7.824;2023-02-21T01:35:50;4.10;;;1.40;;
21032;SDS011;10675;47.976;7.824;2023-02-21T01:38:34;2.27;;;1.20;;
21032;SDS011;10675;47.976;7.824;2023-02-21T01:41:19;1.50;;;1.40;;
21032;SDS011;10675;47.976;7.824;2023-02-21T01:44:05;1.30;;;1.20;;
21032;SDS011;10675;47.976;7.824;2023-02-21T01:47:10;1.90;;;1.47;;
21032;SDS011;10675;47.976;7.824;2023-02-21T01:49:54;1.47;;;1.37;;
21032;SDS011;10675;47.976;7.824;2023-02-21T01:52:39;2.97;;;1.40;;
21032;SDS011;10675;47.976;7.824;2023-02-21T01:55:23;1.53;;;1.33;;
21032;SDS011;10675;47.976;7.824;2023-02-21T01:58:07;3.63;;;1.40;;
21032;SDS011;10675;47.976;7.824;2023-02-21T02:00:52;1.67;;;1.50;;
21032;SDS011;10675;47.976;7.824;2023-02-21T02:03:36;2.33;;;1.27;;
21032;SDS011;10675;47.976;7.824;2023-02-21T02:06:22;1.50;;;1.40;;
21032;SDS011;10675;47.976;7.824;2023-02-21T02:09:19;1.30;;;1.20;;
21032;SDS011;10675;47.976;7.824;2023-02-21T02:36:36;2.73;;;1.40;;
21032;SDS011;10675;47.976;7.824;2023-02-21T02:39:21;1.70;;;1.47;;
21032;SDS011;10675;47.976;7.824;2023-02-21T02:42:07;1.33;;;1.27;;
21032;SDS011;10675;47.976;7.824;2023-02-21T02:44:40;1.47;;;1.03;;
21032;SDS011;10675;47.976;7.824;2023-02-21T02:47:20;2.70;;;1.47;;
21032;SDS011;10675;47.976;7.824;2023-02-21T02:49:49;3.20;;;1.30;;
21032;SDS011;10675;47.976;7.824;2023-02-21T02:52:16;1.90;;;1.53;;
21032;SDS011;10675;47.976;7.824;2023-02-21T02:54:42;2.70;;;1.30;;
21032;SDS011;10675;47.976;7.824;2023-02-21T02:57:08;1.70;;;1.40;;
21032;SDS011;10675;47.976;7.824;2023-02-21T02:59:37;4.47;;;1.27;;
21032;SDS011;10675;47.976;7.824;2023-02-21T03:02:10;2.00;;;1.00;;
21032;SDS011;10675;47.976;7.824;2023-02-21T03:05:08;3.10;;;1.30;;
21032;SDS011;10675;47.976;7.824;2023-02-21T03:13:48;1.43;;;1.33;;
21032;SDS011;10675;47.976;7.824;2023-02-21T03:16:31;2.10;;;1.60;;
21032;SDS011;10675;47.976;7.824;2023-02-21T03:21:44;3.40;;;1.70;;
21032;SDS011;10675;47.976;7.824;2023-02-21T03:24:13;1.47;;;1.33;;
21032;SDS011;10675;47.976;7.824;2023-02-21T03:26:42;3.40;;;1.30;;
21032;SDS011;10675;47.976;7.824;2023-02-21T03:29:11;3.23;;;1.23;;
21032;SDS011;10675;47.976;7.824;2023-02-21T03:31:43;2.07;;;1.30;;
21032;SDS011;10675;47.976;7.824;2023-02-21T03:34:12;8.47;;;2.03;;
21032;SDS011;10675;47.976;7.824;2023-02-21T03:36:39;2.50;;;1.70;;
21032;SDS011;10675;47.976;7.824;2023-02-21T03:39:05;5.23;;;1.67;;
21032;SDS011;10675;47.976;7.824;2023-02-21T03:41:31;4.20;;;1.60;;
21032;SDS011;10675;47.976;7.824;2023-02-21T03:43:56;1.60;;;1.50;;
21032;SDS011;10675;47.976;7.824;2023-02-21T03:46:22;3.00;;;1.33;;
21032;SDS011;10675;47.976;7.824;2023-02-21T03:48:48;1.77;;;1.30;;
21032;SDS011;10675;47.976;7.824;2023-02-21T03:51:13;1.60;;;1.50;;
21032;SDS011;10675;47.976;7.824;2023-02-21T03:53:39;2.17;;;1.47;;
21032;SDS011;10675;47.976;7.824;2023-02-21T03:56:04;2.23;;;1.60;;
21032;SDS011;10675;47.976;7.824;2023-02-21T03:58:30;2.70;;;1.20;;
21032;SDS011;10675;47.976;7.824;2023-02-21T04:00:56;2.17;;;1.50;;
21032;SDS011;10675;47.976;7.824;2023-02-21T04:03:22;1.87;;;1.53;;
21032;SDS011;10675;47.976;7.824;2023-02-21T04:05:47;2.00;;;1.43;;
21032;SDS011;10675;47.976;7.824;2023-02-21T04:08:13;1.37;;;1.27;;
21032;SDS011;10675;47.976;7.824;2023-02-21T04:10:39;1.83;;;1.60;;
21032;SDS011;10675;47.976;7.824;2023-02-21T04:13:04;2.30;;;1.50;;
21032;SDS011;10675;47.976;7.824;2023-02-21T04:15:31;2.83;;;1.57;;
21032;SDS011;10675;47.976;7.824;2023-02-21T04:17:57;2.80;;;1.10;;
21032;SDS011;10675;47.976;7.824;2023-02-21T04:20:22;1.43;;;1.33;;
21032;SDS011;10675;47.976;7.824;2023-02-21T04:22:48;1.67;;;1.30;;
21032;SDS011;10675;47.976;7.824;2023-02-21T04:25:14;1.20;;;1.10;;
21032;SDS011;10675;47.976;7.824;2023-02-21T04:27:40;1.33;;;1.20;;
21032;SDS011;10675;47.976;7.824;2023-02-21T04:30:06;1.40;;;1.30;;
21032;SDS011;10675;47.976;7.824;2023-02-21T04:32:32;3.00;;;1.10;;
21032;SDS011;10675;47.976;7.824;2023-02-21T04:34:57;2.23;;;1.37;;
21032;SDS011;10675;47.976;7.824;2023-02-21T04:37:23;1.37;;;1.27;;
21032;SDS011;10675;47.976;7.824;2023-02-21T04:39:49;1.83;;;1.00;;
21032;SDS011;10675;47.976;7.824;2023-02-21T04:42:14;1.03;;;1.00;;
21032;SDS011;10675;47.976;7.824;2023-02-21T04:44:40;2.77;;;1.57;;
21032;SDS011;10675;47.976;7.824;2023-02-21T04:47:06;3.70;;;1.47;;
21032;SDS011;10675;47.976;7.824;2023-02-21T04:49:31;1.40;;;1.30;;
21032;SDS011;10675;47.976;7.824;2023-02-21T04:51:57;1.20;;;1.10;;
21032;SDS011;10675;47.976;7.824;2023-02-21T04:54:23;1.43;;;1.00;;
21032;SDS011;10675;47.976;7.824;2023-02-21T04:56:48;1.80;;;1.30;;
21032;SDS011;10675;47.976;7.824;2023-02-21T04:59:14;1.43;;;0.97;;
21032;SDS011;10675;47.976;7.824;2023-02-21T05:01:39;2.27;;;1.20;;
21032;SDS011;10675;47.976;7.824;2023-02-21T05:04:05;2.20;;;1.37;;
21032;SDS011;10675;47.976;7.824;2023-02-21T05:06:31;2.90;;;1.40;;
21032;SDS011;10675;47.976;7.824;2023-02-21T05:08:57;1.13;;;1.07;;
21032;SDS011;10675;47.976;7.824;2023-02-21T05:11:24;2.40;;;1.67;;
21032;SDS011;10675;47.976;7.824;2023-02-21T05:13:50;1.57;;;1.20;;
21032;SDS011;10675;47.976;7.824;2023-02-21T05:16:15;1.90;;;1.17;;
21032;SDS011;10675;47.976;7.824;2023-02-21T05:18:42;2.07;;;1.40;;
21032;SDS011;10675;47.976;7.824;2023-02-21T05:21:09;1.50;;;1.40;;
21032;SDS011;10675;47.976;7.824;2023-02-21T05:23:35;2.03;;;1.03;;
21032;SDS011;10675;47.976;7.824;2023-02-21T05:26:03;1.57;;;1.10;;
21032;SDS011;10675;47.976;7.824;2023-02-21T05:28:29;2.67;;;0.90;;
21032;SDS011;10675;47.976;7.824;2023-02-21T05:30:55;1.80;;;1.17;;
21032;SDS011;10675;47.976;7.824;2023-02-21T05:33:22;1.03;;;0.93;;
21032;SDS011;10675;47.976;7.824;2023-02-21T05:35:48;1.23;;;1.17;;
21032;SDS011;10675;47.976;7.824;2023-02-21T05:38:17;1.80;;;1.40;;
21032;SDS011;10675;47.976;7.824;2023-02-21T05:40:44;1.73;;;1.40;;
21032;SDS011;10675;47.976;7.824;2023-02-21T05:43:10;3.50;;;1.77;;
21032;SDS011;10675;47.976;7.824;2023-02-21T05:45:35;1.40;;;1.30;;
21032;SDS011;10675;47.976;7.824;2023-02-21T05:48:01;2.90;;;1.30;;
21032;SDS011;10675;47.976;7.824;2023-02-21T05:50:28;4.43;;;1.50;;
21032;SDS011;10675;47.976;7.824;2023-02-21T05:52:55;3.90;;;1.57;;
21032;SDS011;10675;47.976;7.824;2023-02-21T05:55:21;3.00;;;1.27;;
21032;SDS011;10675;47.976;7.824;2023-02-21T05:57:47;1.80;;;1.50;;
21032;SDS011;10675;47.976;7.824;2023-02-21T06:00:20;1.70;;;1.60;;
21032;SDS011;10675;47.976;7.824;2023-02-21T06:02:48;1.70;;;1.60;;
21032;SDS011;10675;47.976;7.824;2023-02-21T06:05:14;2.40;;;1.60;;
21032;SDS011;10675;47.976;7.824;2023-02-21T06:07:40;3.30;;;1.83;;
21032;SDS011;10675;47.976;7.824;2023-02-21T06:10:06;4.60;;;2.20;;
21032;SDS011;10675;47.976;7.824;2023-02-21T06:12:32;4.27;;;1.63;;
21032;SDS011;10675;47.976;7.824;2023-02-21T06:14:58;2.47;;;1.90;;
21032;SDS011;10675;47.976;7.824;2023-02-21T06:17:24;3.10;;;2.03;;
21032;SDS011;10675;47.976;7.824;2023-02-21T06:19:50;3.50;;;2.00;;
21032;SDS011;10675;47.976;7.824;2023-02-21T06:22:15;3.97;;;2.20;;
21032;SDS011;10675;47.976;7.824;2023-02-21T06:24:41;5.17;;;1.90;;
21032;SDS011;10675;47.976;7.824;2023-02-21T06:27:07;2.97;;;1.70;;
21032;SDS011;10675;47.976;7.824;2023-02-21T06:29:33;1.93;;;1.73;;
21032;SDS011;10675;47.976;7.824;2023-02-21T06:31:58;2.83;;;1.67;;
21032;SDS011;10675;47.976;7.824;2023-02-21T06:34:25;3.90;;;2.00;;
21032;SDS011;10675;47.976;7.824;2023-02-21T06:36:52;3.33;;;2.23;;
21032;SDS011;10675;47.976;7.824;2023-02-21T06:39:19;6.03;;;2.27;;
21032;SDS011;10675;47.976;7.824;2023-02-21T06:41:45;5.13;;;2.47;;
21032;SDS011;10675;47.976;7.824;2023-02-21T06:44:12;3.97;;;2.23;;
21032;SDS011;10675;47.976;7.824;2023-02-21T06:46:38;2.73;;;2.20;;
21032;SDS011;10675;47.976;7.824;2023-02-21T06:49:04;6.40;;;2.70;;
21032;SDS011;10675;47.976;7.824;2023-02-21T06:51:33;2.57;;;2.10;;
21032;SDS011;10675;47.976;7.824;2023-02-21T06:54:03;2.40;;;2.07;;
21032;SDS011;10675;47.976;7.824;2023-02-21T06:56:29;6.47;;;2.63;;
21032;SDS011;10675;47.976;7.824;2023-02-21T06:58:55;5.57;;;2.13;;
21032;SDS011;10675;47.976;7.824;2023-02-21T07:01:22;4.07;;;1.90;;
21032;SDS011;10675;47.976;7.824;2023-02-21T07:03:49;3.10;;;2.17;;
21032;SDS011;10675;47.976;7.824;2023-02-21T07:06:15;1.90;;;1.77;;
21032;SDS011;10675;47.976;7.824;2023-02-21T07:08:41;4.63;;;2.10;;
21032;SDS011;10675;47.976;7.824;2023-02-21T07:11:06;2.60;;;2.13;;
21032;SDS011;10675;47.976;7.824;2023-02-21T07:13:32;7.70;;;2.17;;
21032;SDS011;10675;47.976;7.824;2023-02-21T07:15:59;3.77;;;2.37;;
21032;SDS011;10675;47.976;7.824;2023-02-21T07:18:24;2.77;;;2.10;;
21032;SDS011;10675;47.976;7.824;2023-02-21T07:20:50;4.57;;;2.90;;
21032;SDS011;10675;47.976;7.824;2023-02-21T07:23:15;3.27;;;1.83;;
21032;SDS011;10675;47.976;7.824;2023-02-21T07:25:41;2.90;;;1.93;;
21032;SDS011;10675;47.976;7.824;2023-02-21T07:28:06;3.83;;;1.90;;
21032;SDS011;10675;47.976;7.824;2023-02-21T07:30:32;2.90;;;1.70;;
21032;SDS011;10675;47.976;7.824;2023-02-21T07:32:58;1.90;;;1.80;;
21032;SDS011;10675;47.976;7.824;2023-02-21T07:35:24;2.60;;;2.00;;
21032;SDS011;10675;47.976;7.824;2023-02-21T07:37:49;3.70;;;1.90;;
21032;SDS011;10675;47.976;7.824;2023-02-21T07:40:15;3.60;;;2.30;;
21032;SDS011;10675;47.976;7.824;2023-02-21T07:42:41;3.60;;;1.93;;
21032;SDS011;10675;47.976;7.824;2023-02-21T07:45:07;1.57;;;1.43;;
21032;SDS011;10675;47.976;7.824;2023-02-21T07:47:34;3.03;;;2.17;;
21032;SDS011;10675;47.976;7.824;2023-02-21T07:49:59;4.87;;;2.13;;
21032;SDS011;10675;47.976;7.824;2023-02-21T07:52:25;2.77;;;2.37;;
21032;SDS011;10675;47.976;7.824;2023-02-21T07:54:50;2.27;;;2.00;;
21032;SDS011;10675;47.976;7.824;2023-02-21T07:57:16;4.70;;;2.27;;
21032;SDS011;10675;47.976;7.824;2023-02-21T07:59:42;3.13;;;2.23;;
21032;SDS011;10675;47.976;7.824;2023-02-21T08:02:09;3.47;;;2.13;;
21032;SDS011;10675;47.976;7.824;2023-02-21T08:04:35;2.83;;;1.90;;
21032;SDS011;10675;47.976;7.824;2023-02-21T08:07:01;2.23;;;2.03;;
21032;SDS011;10675;47.976;7.824;2023-02-21T08:09:28;2.07;;;1.97;;
21032;SDS011;10675;47.976;7.824;2023-02-21T08:11:54;3.63;;;2.07;;
21032;SDS011;10675;47.976;7.824;2023-02-21T08:14:19;3.07;;;2.00;;
21032;SDS011;10675;47.976;7.824;2023-02-21T08:16:45;3.07;;;2.03;;
21032;SDS011;10675;47.976;7.824;2023-02-21T08:19:10;2.77;;;2.23;;
21032;SDS011;10675;47.976;7.824;2023-02-21T08:21:36;5.23;;;2.70;;
21032;SDS011;10675;47.976;7.824;2023-02-21T08:24:02;4.53;;;2.70;;
21032;SDS011;10675;47.976;7.824;2023-02-21T08:26:27;3.80;;;2.47;;
21032;SDS011;10675;47.976;7.824;2023-02-21T08:28:53;3.30;;;2.50;;
21032;SDS011;10675;47.976;7.824;2023-02-21T08:31:18;2.90;;;2.47;;
21032;SDS011;10675;47.976;7.824;2023-02-21T08:33:44;4.87;;;2.90;;
21032;SDS011;10675;47.976;7.824;2023-02-21T08:36:10;3.53;;;2.67;;
21032;SDS011;10675;47.976;7.824;2023-02-21T08:38:35;3.67;;;2.70;;
21032;SDS011;10675;47.976;7.824;2023-02-21T08:41:02;2.77;;;2.50;;
21032;SDS011;10675;47.976;7.824;2023-02-21T08:43:30;4.20;;;2.63;;
21032;SDS011;10675;47.976;7.824;2023-02-21T08:45:55;3.33;;;2.47;;
21032;SDS011;10675;47.976;7.824;2023-02-21T08:48:21;3.90;;;3.30;;
21032;SDS011;10675;47.976;7.824;2023-02-21T08:50:46;7.17;;;2.80;;
21032;SDS011;10675;47.976;7.824;2023-02-21T08:53:12;6.03;;;2.97;;
21032;SDS011;10675;47.976;7.824;2023-02-21T08:55:38;4.30;;;3.10;;
21032;SDS011;10675;47.976;7.824;2023-02-21T08:58:04;3.60;;;2.90;;
21032;SDS011;10675;47.976;7.824;2023-02-21T09:00:30;7.27;;;3.03;;
21032;SDS011;10675;47.976;7.824;2023-02-21T09:02:56;5.80;;;3.70;;
21032;SDS011;10675;47.976;7.824;2023-02-21T09:05:25;4.83;;;3.50;;
21032;SDS011;10675;47.976;7.824;2023-02-21T09:07:53;5.50;;;3.60;;
21032;SDS011;10675;47.976;7.824;2023-02-21T09:10:23;5.60;;;3.83;;
21032;SDS011;10675;47.976;7.824;2023-02-21T09:12:49;5.43;;;3.53;;
21032;SDS011;10675;47.976;7.824;2023-02-21T09:15:15;6.47;;;4.03;;
21032;SDS011;10675;47.976;7.824;2023-02-21T09:17:41;4.83;;;3.60;;
21032;SDS011;10675;47.976;7.824;2023-02-21T09:20:08;5.87;;;3.87;;
21032;SDS011;10675;47.976;7.824;2023-02-21T09:22:36;4.83;;;3.70;;
21032;SDS011;10675;47.976;7.824;2023-02-21T09:25:02;5.07;;;3.80;;
21032;SDS011;10675;47.976;7.824;2023-02-21T09:27:28;7.10;;;3.90;;
21032;SDS011;10675;47.976;7.824;2023-02-21T09:30:10;7.10;;;4.17;;
21032;SDS011;10675;47.976;7.824;2023-02-21T09:32:48;6.40;;;3.80;;
21032;SDS011;10675;47.976;7.824;2023-02-21T09:35:15;5.93;;;3.80;;
21032;SDS011;10675;47.976;7.824;2023-02-21T09:37:41;5.03;;;3.53;;
21032;SDS011;10675;47.976;7.824;2023-02-21T09:40:16;5.53;;;3.47;;
21032;SDS011;10675;47.976;7.824;2023-02-21T09:42:43;8.03;;;3.90;;
21032;SDS011;10675;47.976;7.824;2023-02-21T09:45:13;5.50;;;3.23;;
21032;SDS011;10675;47.976;7.824;2023-02-21T09:47:40;4.20;;;3.77;;
21032;SDS011;10675;47.976;7.824;2023-02-21T09:50:10;7.77;;;3.93;;
21032;SDS011;10675;47.976;7.824;2023-02-21T09:52:38;5.17;;;3.63;;
21032;SDS011;10675;47.976;7.824;2023-02-21T09:55:13;4.63;;;3.53;;
21032;SDS011;10675;47.976;7.824;2023-02-21T09:58:10;7.53;;;3.67;;
21032;SDS011;10675;47.976;7.824;2023-02-21T10:00:37;5.67;;;3.63;;
21032;SDS011;10675;47.976;7.824;2023-02-21T10:05:52;3.97;;;2.97;;
21032;SDS011;10675;47.976;7.824;2023-02-21T10:11:30;7.13;;;3.07;;
21032;SDS011;10675;47.976;7.824;2023-02-21T10:22:01;3.93;;;3.07;;
21032;SDS011;10675;47.976;7.824;2023-02-21T10:24:37;7.20;;;3.33;;
21032;SDS011;10675;47.976;7.824;2023-02-21T10:27:06;5.23;;;3.10;;
21032;SDS011;10675;47.976;7.824;2023-02-21T10:32:02;3.23;;;2.73;;
21032;SDS011;10675;47.976;7.824;2023-02-21T10:34:28;5.13;;;3.23;;
21032;SDS011;10675;47.976;7.824;2023-02-21T10:36:56;5.60;;;3.07;;
21032;SDS011;10675;47.976;7.824;2023-02-21T10:39:45;4.17;;;2.70;;
21032;SDS011;10675;47.976;7.824;2023-02-21T10:42:25;4.80;;;3.17;;
21032;SDS011;10675;47.976;7.824;2023-02-21T10:44:58;3.17;;;2.70;;
21032;SDS011;10675;47.976;7.824;2023-02-21T10:47:28;5.37;;;3.07;;
21032;SDS011;10675;47.976;7.824;2023-02-21T10:50:16;3.80;;;2.77;;
21032;SDS011;10675;47.976;7.824;2023-02-21T10:53:05;4.57;;;2.60;;
21032;SDS011;10675;47.976;7.824;2023-02-21T10:55:31;2.87;;;2.37;;
21032;SDS011;10675;47.976;7.824;2023-02-21T10:57:57;2.50;;;2.30;;
21032;SDS011;10675;47.976;7.824;2023-02-21T11:00:35;4.13;;;2.20;;
21032;SDS011;10675;47.976;7.824;2023-02-21T11:03:11;3.57;;;2.50;;
21032;SDS011;10675;47.976;7.824;2023-02-21T11:05:49;4.13;;;2.40;;
21032;SDS011;10675;47.976;7.824;2023-02-21T11:08:16;4.67;;;2.47;;
21032;SDS011;10675;47.976;7.824;2023-02-21T11:11:08;5.43;;;2.37;;
21032;SDS011;10675;47.976;7.824;2023-02-21T11:13:34;3.00;;;2.30;;
21032;SDS011;10675;47.976;7.824;2023-02-21T11:16:09;2.57;;;2.23;;
21032;SDS011;10675;47.976;7.824;2023-02-21T11:18:36;3.33;;;2.30;;
21032;SDS011;10675;47.976;7.824;2023-02-21T11:21:12;2.83;;;2.00;;
21032;SDS011;10675;47.976;7.824;2023-02-21T11:23:48;4.40;;;2.37;;
21032;SDS011;10675;47.976;7.824;2023-02-21T11:26:35;3.03;;;2.20;;
21032;SDS011;10675;47.976;7.824;2023-02-21T11:29:07;3.53;;;2.10;;
21032;SDS011;10675;47.976;7.824;2023-02-21T11:31:36;3.70;;;2.20;;
21032;SDS011;10675;47.976;7.824;2023-02-21T11:34:02;2.97;;;2.17;;
21032;SDS011;10675;47.976;7.824;2023-02-21T11:36:51;4.13;;;2.50;;
21032;SDS011;10675;47.976;7.824;2023-02-21T11:39:23;3.93;;;2.43;;
21032;SDS011;10675;47.976;7.824;2023-02-21T11:41:56;3.27;;;2.33;;
21032;SDS011;10675;47.976;7.824;2023-02-21T11:47:07;5.03;;;2.60;;
21032;SDS011;10675;47.976;7.824;2023-02-21T11:52:31;2.30;;;1.90;;
21032;SDS011;10675;47.976;7.824;2023-02-21T11:55:02;4.97;;;2.30;;
21032;SDS011;10675;47.976;7.824;2023-02-21T11:57:40;3.73;;;2.20;;
21032;SDS011;10675;47.976;7.824;2023-02-21T12:00:46;6.17;;;2.30;;
21032;SDS011;10675;47.976;7.824;2023-02-21T12:03:35;3.33;;;2.00;;
21032;SDS011;10675;47.976;7.824;2023-02-21T12:09:06;2.17;;;1.80;;
21032;SDS011;10675;47.976;7.824;2023-02-21T12:11:57;1.77;;;1.67;;
21032;SDS011;10675;47.976;7.824;2023-02-21T12:23:24;2.27;;;1.50;;
21032;SDS011;10675;47.976;7.824;2023-02-21T12:25:57;2.00;;;1.50;;
21032;SDS011;10675;47.976;7.824;2023-02-21T12:46:24;3.23;;;1.90;;
21032;SDS011;10675;47.976;7.824;2023-02-21T12:49:09;3.87;;;2.17;;
21032;SDS011;10675;47.976;7.824;2023-02-21T12:51:41;2.77;;;1.70;;
21032;SDS011;10675;47.976;7.824;2023-02-21T12:54:19;3.87;;;1.97;;
21032;SDS011;10675;47.976;7.824;2023-02-21T12:56:56;5.17;;;1.97;;
21032;SDS011;10675;47.976;7.824;2023-02-21T13:01:55;2.80;;;1.90;;
21032;SDS011;10675;47.976;7.824;2023-02-21T13:09:44;4.47;;;1.70;;
21032;SDS011;10675;47.976;7.824;2023-02-21T13:12:16;3.67;;;1.77;;
21032;SDS011;10675;47.976;7.824;2023-02-21T13:14:54;2.43;;;2.00;;
21032;SDS011;10675;47.976;7.824;2023-02-21T13:17:24;2.37;;;1.70;;
21032;SDS011;10675;47.976;7.824;2023-02-21T13:19:59;4.30;;;1.97;;
21032;SDS011;10675;47.976;7.824;2023-02-21T13:22:31;2.30;;;1.63;;
21032;SDS011;10675;47.976;7.824;2023-02-21T13:28:16;3.20;;;1.80;;
21032;SDS011;10675;47.976;7.824;2023-02-21T13:30:49;1.87;;;1.57;;
21032;SDS011;10675;47.976;7.824;2023-02-21T13:35:51;4.83;;;1.73;;
21032;SDS011;10675;47.976;7.824;2023-02-21T13:38:17;2.43;;;1.57;;
21032;SDS011;10675;47.976;7.824;2023-02-21T13:40:48;2.00;;;1.73;;
21032;SDS011;10675;47.976;7.824;2023-02-21T13:43:21;2.60;;;1.30;;
21032;SDS011;10675;47.976;7.824;2023-02-21T13:45:47;3.87;;;1.40;;
21032;SDS011;10675;47.976;7.824;2023-02-21T13:48:17;2.00;;;1.40;;
21032;SDS011;10675;47.976;7.824;2023-02-21T13:50:46;2.47;;;1.53;;
21032;SDS011;10675;47.976;7.824;2023-02-21T13:53:16;5.20;;;1.50;;
21032;SDS011;10675;47.976;7.824;2023-02-21T13:58:29;1.50;;;1.00;;
21032;SDS011;10675;47.976;7.824;2023-02-21T14:00:55;1.73;;;0.90;;
21032;SDS011;10675;47.976;7.824;2023-02-21T14:03:36;1.50;;;1.20;;
21032;SDS011;10675;47.976;7.824;2023-02-21T14:08:41;2.00;;;1.17;;
21032;SDS011;10675;47.976;7.824;2023-02-21T14:11:12;1.90;;;1.30;;
21032;SDS011;10675;47.976;7.824;2023-02-21T14:13:52;1.33;;;1.23;;
21032;SDS011;10675;47.976;7.824;2023-02-21T14:16:45;2.53;;;1.37;;
21032;SDS011;10675;47.976;7.824;2023-02-21T14:19:18;1.87;;;1.30;;
21032;SDS011;10675;47.976;7.824;2023-02-21T14:21:50;2.50;;;1.08;;
21032;SDS011;10675;47.976;7.824;2023-02-21T14:24:22;2.45;;;1.15;;
21032;SDS011;10675;47.976;7.824;2023-02-21T14:29:37;4.95;;;1.30;;
21032;SDS011;10675;47.976;7.824;2023-02-21T14:34:37;2.85;;;1.10;;
21032;SDS011;10675;47.976;7.824;2023-02-21T14:37:14;1.88;;;1.02;;
21032;SDS011;10675;47.976;7.824;2023-02-21T14:40:00;2.80;;;1.23;;
21032;SDS011;10675;47.976;7.824;2023-02-21T14:43:05;2.53;;;1.27;;
21032;SDS011;10675;47.976;7.824;2023-02-21T14:45:48;1.97;;;1.40;;
21032;SDS011;10675;47.976;7.824;2023-02-21T14:56:39;2.63;;;1.40;;
21032;SDS011;10675;47.976;7.824;2023-02-21T14:59:22;2.10;;;1.67;;
21032;SDS011;10675;47.976;7.824;2023-02-21T15:05:06;1.27;;;1.10;;
21032;SDS011;10675;47.976;7.824;2023-02-21T15:12:46;8.25;;;1.67;;
21032;SDS011;10675;47.976;7.824;2023-02-21T15:15:15;2.40;;;1.10;;
21032;SDS011;10675;47.976;7.824;2023-02-21T15:20:34;4.57;;;1.45;;
21032;SDS011;10675;47.976;7.824;2023-02-21T15:23:14;6.07;;;1.60;;
21032;SDS011;10675;47.976;7.824;2023-02-21T15:25:43;2.60;;;1.50;;
21032;SDS011;10675;47.976;7.824;2023-02-21T15:28:22;2.58;;;1.45;;
21032;SDS011;10675;47.976;7.824;2023-02-21T15:31:02;1.80;;;1.40;;
21032;SDS011;10675;47.976;7.824;2023-02-21T15:33:34;2.15;;;1.38;;
21032;SDS011;10675;47.976;7.824;2023-02-21T15:36:06;3.75;;;1.50;;
21032;SDS011;10675;47.976;7.824;2023-02-21T15:38:35;3.15;;;1.48;;
21032;SDS011;10675;47.976;7.824;2023-02-21T15:43:57;1.48;;;1.38;;
21032;SDS011;10675;47.976;7.824;2023-02-21T15:46:26;4.32;;;1.48;;
21032;SDS011;10675;47.976;7.824;2023-02-21T15:48:58;3.17;;;1.65;;
21032;SDS011;10675;47.976;7.824;2023-02-21T15:51:26;6.70;;;1.40;;
21032;SDS011;10675;47.976;7.824;2023-02-21T15:54:36;4.38;;;1.35;;
21032;SDS011;10675;47.976;7.824;2023-02-21T15:56:43;3.53;;;1.50;;
21032;SDS011;10675;47.976;7.824;2023-02-21T16:01:35;2.22;;;1.30;;
21032;SDS011;10675;47.976;7.824;2023-02-21T16:04:13;2.05;;;1.20;;
21032;SDS011;10675;47.976;7.824;2023-02-21T16:06:50;2.67;;;1.20;;
21032;SDS011;10675;47.976;7.824;2023-02-21T16:09:26;7.65;;;1.58;;
21032;SDS011;10675;47.976;7.824;2023-02-21T16:19:38;3.00;;;1.58;;
21032;SDS011;10675;47.976;7.824;2023-02-21T16:25:16;5.72;;;1.58;;
21032;SDS011;10675;47.976;7.824;2023-02-21T16:27:48;8.07;;;1.90;;
21032;SDS011;10675;47.976;7.824;2023-02-21T16:30:17;2.97;;;1.90;;
21032;SDS011;10675;47.976;7.824;2023-02-21T16:32:48;5.78;;;2.25;;
21032;SDS011;10675;47.976;7.824;2023-02-21T16:35:16;4.50;;;2.00;;
21032;SDS011;10675;47.976;7.824;2023-02-21T16:37:44;3.20;;;2.10;;
21032;SDS011;10675;47.976;7.824;2023-02-21T16:40:15;5.00;;;2.27;;
21032;SDS011;10675;47.976;7.824;2023-02-21T16:42:47;3.10;;;2.53;;
21032;SDS011;10675;47.976;7.824;2023-02-21T16:45:14;9.00;;;3.57;;
21032;SDS011;10675;47.976;7.824;2023-02-21T16:47:39;12.20;;;3.30;;
21032;SDS011;10675;47.976;7.824;2023-02-21T16:50:22;5.63;;;3.47;;
21032;SDS011;10675;47.976;7.824;2023-02-21T16:52:54;9.50;;;3.47;;
21032;SDS011;10675;47.976;7.824;2023-02-21T16:55:20;9.50;;;3.37;;
21032;SDS011;10675;47.976;7.824;2023-02-21T16:57:46;6.90;;;3.83;;
21032;SDS011;10675;47.976;7.824;2023-02-21T17:00:14;8.97;;;4.00;;
21032;SDS011;10675;47.976;7.824;2023-02-21T17:02:41;9.27;;;3.23;;
21032;SDS011;10675;47.976;7.824;2023-02-21T17:05:07;4.77;;;3.47;;
21032;SDS011;10675;47.976;7.824;2023-02-21T17:07:33;9.23;;;3.47;;
21032;SDS011;10675;47.976;7.824;2023-02-21T17:09:58;6.03;;;2.90;;
21032;SDS011;10675;47.976;7.824;2023-02-21T17:12:24;6.40;;;3.20;;
21032;SDS011;10675;47.976;7.824;2023-02-21T17:14:49;7.73;;;3.50;;
21032;SDS011;10675;47.976;7.824;2023-02-21T17:17:15;8.07;;;3.87;;
21032;SDS011;10675;47.976;7.824;2023-02-21T17:19:41;8.47;;;3.23;;
21032;SDS011;10675;47.976;7.824;2023-02-21T17:22:07;5.73;;;3.07;;
21032;SDS011;10675;47.976;7.824;2023-02-21T17:24:32;7.10;;;3.43;;
21032;SDS011;10675;47.976;7.824;2023-02-21T17:26:58;7.30;;;3.50;;
21032;SDS011;10675;47.976;7.824;2023-02-21T17:29:23;6.93;;;3.20;;
21032;SDS011;10675;47.976;7.824;2023-02-21T17:31:53;4.73;;;2.87;;
21032;SDS011;10675;47.976;7.824;2023-02-21T17:34:19;6.80;;;3.37;;
21032;SDS011;10675;47.976;7.824;2023-02-21T17:36:49;7.30;;;3.43;;
21032;SDS011;10675;47.976;7.824;2023-02-21T17:39:16;7.30;;;3.53;;
21032;SDS011;10675;47.976;7.824;2023-02-21T17:41:46;4.73;;;3.03;;